createdAt,value
2018-09-06T00:02:08.470Z,17.73
2018-09-06T00:04:36.113Z,19.40
2018-09-06T00:07:03.786Z,20.53
2018-09-06T00:09:31.493Z,18.70
2018-09-06T00:11:59.172Z,20.88
2018-09-06T00:14:27.384Z,16.80
2018-09-06T00:16:55.090Z,21.33
2018-09-06T00:19:22.783Z,17.00
2018-09-06T00:21:50.408Z,18.42
2018-09-06T00:24:18.050Z,15.80
2018-09-06T00:26:45.648Z,20.53
2018-09-06T00:29:13.316Z,18.45
2018-09-06T00:31:41.029Z,18.00
2018-09-06T00:34:08.667Z,16.90
2018-09-06T00:36:36.352Z,16.48
2018-09-06T00:39:05.395Z,20.07
2018-09-06T00:41:33.021Z,17.30
2018-09-06T00:44:00.631Z,17.25
2018-09-06T00:46:28.372Z,13.65
2018-09-06T00:48:55.998Z,16.67
2018-09-06T00:51:23.658Z,18.80
2018-09-06T00:53:51.522Z,16.30
2018-09-06T00:56:19.129Z,16.03
2018-09-06T00:58:46.898Z,20.45
2018-09-06T01:01:14.520Z,15.28
2018-09-06T01:03:42.113Z,16.70
2018-09-06T01:06:09.756Z,14.30
2018-09-06T01:08:37.467Z,19.25
2018-09-06T01:11:05.955Z,25.70
2018-09-06T01:13:33.721Z,20.00
2018-09-06T01:16:01.385Z,16.60
2018-09-06T01:18:29.117Z,17.98
2018-09-06T01:20:56.776Z,18.50
2018-09-06T01:23:24.475Z,18.00
2018-09-06T01:25:52.218Z,27.27
2018-09-06T01:28:20.590Z,19.20
2018-09-06T01:30:48.651Z,23.75
2018-09-06T01:33:16.275Z,18.37
2018-09-06T01:35:48.510Z,15.93
2018-09-06T01:38:16.635Z,20.43
2018-09-06T01:40:44.344Z,21.73
2018-09-06T01:43:11.970Z,19.90
2018-09-06T01:45:39.562Z,22.58
2018-09-06T01:48:07.404Z,18.10
2018-09-06T01:50:35.068Z,21.20
2018-09-06T01:53:02.740Z,19.23
2018-09-06T01:55:30.313Z,17.37
2018-09-06T01:57:57.911Z,17.67
2018-09-06T02:00:25.527Z,15.37
2018-09-06T02:02:53.260Z,15.63
2018-09-06T02:05:26.779Z,21.63
2018-09-06T02:07:54.395Z,13.93
2018-09-06T02:10:22.500Z,16.87
2018-09-06T02:12:50.203Z,19.77
2018-09-06T02:15:17.970Z,17.53
2018-09-06T02:17:45.672Z,19.80
2018-09-06T02:20:13.429Z,16.75
2018-09-06T02:22:41.116Z,18.93
2018-09-06T02:25:09.118Z,20.17
2018-09-06T02:27:36.808Z,19.03
2018-09-06T02:30:04.740Z,16.43
2018-09-06T02:32:32.355Z,17.40
2018-09-06T02:34:59.976Z,18.30
2018-09-06T02:37:27.646Z,18.15
2018-09-06T02:39:55.278Z,17.10
2018-09-06T02:42:22.949Z,18.33
2018-09-06T02:44:50.517Z,18.43
2018-09-06T02:47:18.246Z,17.67
2018-09-06T02:49:51.700Z,20.20
2018-09-06T02:52:19.400Z,18.27
2018-09-06T02:54:47.064Z,17.90
2018-09-06T02:57:14.734Z,22.60
2018-09-06T02:59:45.400Z,17.30
2018-09-06T03:02:13.134Z,24.13
2018-09-06T03:04:40.922Z,22.07
2018-09-06T03:07:08.566Z,28.10
2018-09-06T03:09:36.149Z,22.62
2018-09-06T03:12:05.290Z,19.63
2018-09-06T03:14:32.955Z,27.17
2018-09-06T03:17:00.614Z,28.97
2018-09-06T03:19:28.270Z,25.43
2018-09-06T03:21:55.948Z,23.60
2018-09-06T03:24:23.624Z,27.57
2018-09-06T03:26:51.298Z,22.90
2018-09-06T03:29:19.001Z,19.85
2018-09-06T03:31:46.637Z,26.15
2018-09-06T03:34:14.266Z,22.13
2018-09-06T03:36:41.935Z,23.50
2018-09-06T03:39:10.178Z,27.00
2018-09-06T03:41:38.254Z,20.10
2018-09-06T03:44:05.891Z,26.00
2018-09-06T03:46:33.743Z,18.37
2018-09-06T03:49:01.430Z,21.97
2018-09-06T03:51:29.092Z,21.90
2018-09-06T03:53:56.779Z,20.83
2018-09-06T03:56:24.419Z,24.82
2018-09-06T03:58:52.140Z,25.40
2018-09-06T04:01:19.881Z,24.50
2018-09-06T04:03:47.489Z,22.00
2018-09-06T04:06:15.309Z,23.43
2018-09-06T04:08:43.101Z,25.00
2018-09-06T04:11:11.253Z,22.77
2018-09-06T04:13:38.903Z,27.48
2018-09-06T04:16:06.670Z,28.00
2018-09-06T04:18:34.337Z,25.70
2018-09-06T04:21:01.975Z,31.17
2018-09-06T04:23:29.657Z,38.70
2018-09-06T04:25:57.311Z,36.45
2018-09-06T04:28:24.977Z,35.13
2018-09-06T04:30:52.589Z,28.07
2018-09-06T04:33:20.169Z,30.23
2018-09-06T04:35:47.904Z,31.85
2018-09-06T04:38:15.493Z,28.37
2018-09-06T04:40:44.901Z,29.55
2018-09-06T04:43:12.535Z,26.43
2018-09-06T04:45:40.342Z,37.13
2018-09-06T04:48:08.039Z,25.23
2018-09-06T04:50:35.621Z,35.23
2018-09-06T04:53:03.297Z,30.43
2018-09-06T04:55:30.975Z,29.30
2018-09-06T04:57:58.579Z,27.73
2018-09-06T05:00:26.203Z,26.12
2018-09-06T05:02:53.968Z,26.07
2018-09-06T05:05:21.600Z,29.97
2018-09-06T05:07:49.210Z,32.47
2018-09-06T05:10:16.819Z,27.55
2018-09-06T05:12:44.465Z,23.83
2018-09-06T05:15:16.111Z,21.65
2018-09-06T05:17:43.799Z,22.73
2018-09-06T05:20:11.448Z,30.83
2018-09-06T05:22:39.176Z,24.52
2018-09-06T05:25:06.800Z,26.03
2018-09-06T05:27:34.422Z,19.70
2018-09-06T05:30:01.981Z,39.47
2018-09-06T05:32:29.666Z,29.27
2018-09-06T05:34:57.335Z,30.47
2018-09-06T05:37:25.044Z,23.40
2018-09-06T05:39:52.764Z,27.03
2018-09-06T05:42:20.818Z,22.93
2018-09-06T05:44:48.613Z,22.30
2018-09-06T05:47:16.295Z,27.40
2018-09-06T05:49:44.018Z,19.40
2018-09-06T05:52:11.629Z,22.75
2018-09-06T05:54:39.164Z,22.60
2018-09-06T05:57:06.887Z,19.77
2018-09-06T05:59:34.569Z,23.12
2018-09-06T06:02:02.132Z,27.27
2018-09-06T06:04:30.202Z,24.70
2018-09-06T06:06:57.971Z,20.50
2018-09-06T06:09:25.713Z,21.57
2018-09-06T06:11:53.353Z,19.63
2018-09-06T06:14:21.053Z,23.73
2018-09-06T06:16:54.677Z,18.25
2018-09-06T06:19:22.335Z,22.47
2018-09-06T06:21:50.004Z,19.85
2018-09-06T06:24:17.701Z,24.63
2018-09-06T06:26:45.333Z,32.37
2018-09-06T06:29:12.957Z,18.90
2018-09-06T06:31:40.589Z,22.10
2018-09-06T06:34:08.303Z,19.40
2018-09-06T06:36:36.004Z,16.90
2018-09-06T06:39:07.464Z,19.60
2018-09-06T06:41:35.484Z,24.07
2018-09-06T06:44:03.168Z,16.80
2018-09-06T06:46:30.854Z,17.97
2018-09-06T06:48:58.493Z,25.17
2018-09-06T06:51:26.157Z,27.73
2018-09-06T06:53:53.832Z,17.70
2018-09-06T06:56:21.521Z,17.10
2018-09-06T06:58:49.223Z,18.77
2018-09-06T07:01:16.950Z,19.75
2018-09-06T07:03:44.585Z,24.10
2018-09-06T07:06:12.169Z,20.37
2018-09-06T07:08:39.845Z,22.67
2018-09-06T07:11:07.522Z,19.90
2018-09-06T07:13:35.151Z,18.97
2018-09-06T07:16:02.831Z,16.32
2018-09-06T07:18:30.540Z,16.73
2018-09-06T07:20:58.324Z,14.47
2018-09-06T07:23:25.933Z,18.50
2018-09-06T07:25:53.621Z,19.40
2018-09-06T07:28:21.244Z,16.63
2018-09-06T07:30:48.922Z,16.48
2018-09-06T07:33:16.532Z,16.60
2018-09-06T07:35:44.254Z,20.60
2018-09-06T07:38:11.862Z,16.57
2018-09-06T07:40:39.792Z,16.45
2018-09-06T07:43:07.430Z,19.17
2018-09-06T07:45:35.086Z,13.25
2018-09-06T07:48:02.756Z,18.95
2018-09-06T07:50:30.569Z,12.90
2018-09-06T07:52:58.169Z,14.73
2018-09-06T07:55:25.783Z,13.87
2018-09-06T07:57:53.393Z,17.23
2018-09-06T08:00:20.942Z,15.50
2018-09-06T08:02:49.549Z,12.43
2018-09-06T08:05:17.180Z,13.40
2018-09-06T08:07:44.758Z,12.05
2018-09-06T08:10:12.417Z,12.40
2018-09-06T08:12:40.012Z,11.80
2018-09-06T08:15:07.684Z,12.98
2018-09-06T08:17:35.305Z,12.67
2018-09-06T08:20:03.005Z,11.60
2018-09-06T08:22:30.604Z,14.53
2018-09-06T08:24:58.160Z,13.13
2018-09-06T08:27:25.861Z,15.60
2018-09-06T08:29:53.454Z,14.98
2018-09-06T08:32:21.105Z,12.80
2018-09-06T08:34:48.796Z,16.17
2018-09-06T08:37:16.446Z,12.00
2018-09-06T08:39:44.136Z,13.10
2018-09-06T08:42:11.713Z,11.85
2018-09-06T08:44:39.308Z,15.90
2018-09-06T08:47:06.965Z,12.70
2018-09-06T08:49:34.720Z,16.52
2018-09-06T08:52:02.363Z,15.80
2018-09-06T08:54:29.994Z,12.57
2018-09-06T08:56:57.581Z,10.80
2018-09-06T08:59:25.218Z,17.17
2018-09-06T09:01:52.912Z,11.83
2018-09-06T09:04:20.518Z,17.87
2018-09-06T09:06:48.270Z,14.20
2018-09-06T09:09:15.919Z,10.60
2018-09-06T09:11:43.557Z,11.70
2018-09-06T09:14:11.177Z,13.10
2018-09-06T09:16:38.824Z,10.25
2018-09-06T09:19:07.500Z,12.03
2018-09-06T09:21:35.255Z,17.60
2018-09-06T09:24:04.097Z,14.73
2018-09-06T09:26:31.962Z,15.33
2018-09-06T09:28:59.600Z,16.13
2018-09-06T09:31:27.172Z,9.90
2018-09-06T09:33:54.820Z,12.33
2018-09-06T09:36:22.491Z,9.43
2018-09-06T09:38:50.142Z,11.37
2018-09-06T09:41:17.747Z,10.30
2018-09-06T09:43:45.374Z,9.78
2018-09-06T09:48:40.326Z,9.50
2018-09-06T09:51:08.032Z,10.87
2018-09-06T09:53:35.715Z,12.27
2018-09-06T09:56:03.563Z,13.13
2018-09-06T09:58:31.297Z,10.63
2018-09-06T10:00:59.107Z,10.38
2018-09-06T10:03:32.604Z,8.53
2018-09-06T10:06:05.940Z,14.67
2018-09-06T10:08:40.061Z,13.30
2018-09-06T10:11:07.768Z,11.60
2018-09-06T10:13:35.506Z,11.37
2018-09-06T10:16:03.247Z,8.33
2018-09-06T10:18:31.119Z,8.93
2018-09-06T10:20:59.045Z,9.95
2018-09-06T10:23:26.801Z,8.55
2018-09-06T10:25:54.557Z,11.20
2018-09-06T10:28:22.228Z,8.73
2018-09-06T10:30:49.951Z,12.93
2018-09-06T10:33:18.448Z,7.50
2018-09-06T10:35:46.089Z,7.28
2018-09-06T10:38:13.721Z,7.83
2018-09-06T10:40:41.384Z,8.90
2018-09-06T10:43:09.253Z,7.60
2018-09-06T10:45:37.051Z,10.10
2018-09-06T10:48:04.691Z,11.30
2018-09-06T10:50:32.352Z,11.22
2018-09-06T10:53:00.012Z,12.37
2018-09-06T10:55:27.606Z,10.80
2018-09-06T10:57:55.269Z,8.10
2018-09-06T11:00:23.006Z,9.25
2018-09-06T11:02:50.873Z,11.27
2018-09-06T11:05:18.589Z,10.03
2018-09-06T11:07:47.305Z,7.93
2018-09-06T11:10:14.905Z,11.70
2018-09-06T11:12:42.584Z,10.23
2018-09-06T11:15:10.338Z,9.20
2018-09-06T11:17:37.990Z,11.93
2018-09-06T11:20:05.690Z,10.27
2018-09-06T11:22:33.717Z,9.67
2018-09-06T11:25:01.144Z,8.70
2018-09-06T11:27:28.804Z,8.87
2018-09-06T11:29:56.455Z,8.55
2018-09-06T11:32:24.126Z,9.00
2018-09-06T11:34:51.841Z,9.27
2018-09-06T11:37:19.487Z,9.90
2018-09-06T11:39:47.257Z,9.00
2018-09-06T11:42:14.881Z,10.40
2018-09-06T11:44:42.557Z,13.80
2018-09-06T11:47:10.331Z,8.30
2018-09-06T11:49:37.931Z,9.80
2018-09-06T11:52:06.203Z,7.57
2018-09-06T11:54:33.943Z,9.60
2018-09-06T11:57:01.663Z,7.33
2018-09-06T11:59:29.465Z,8.30
2018-09-06T12:01:57.174Z,8.93
2018-09-06T12:04:24.897Z,6.27
2018-09-06T12:06:52.759Z,7.50
2018-09-06T12:09:20.453Z,7.80
2018-09-06T12:11:48.193Z,8.50
2018-09-06T12:14:15.855Z,8.10
2018-09-06T12:16:44.807Z,7.90
2018-09-06T12:19:12.689Z,8.78
2018-09-06T12:21:40.347Z,7.45
2018-09-06T12:24:08.015Z,7.85
2018-09-06T12:26:35.746Z,8.73
2018-09-06T12:29:03.661Z,7.37
2018-09-06T12:31:31.283Z,7.30
2018-09-06T12:33:59.027Z,7.20
2018-09-06T12:36:26.694Z,7.10
2018-09-06T12:38:54.351Z,6.83
2018-09-06T12:41:21.982Z,8.63
2018-09-06T12:43:49.794Z,8.80
2018-09-06T12:46:17.400Z,6.90
2018-09-06T12:48:45.053Z,6.10
2018-09-06T12:51:12.714Z,6.00
2018-09-06T12:53:40.322Z,7.00
2018-09-06T12:56:07.958Z,6.28
2018-09-06T12:58:35.603Z,5.80
2018-09-06T13:01:03.194Z,6.57
2018-09-06T13:03:30.862Z,5.97
2018-09-06T13:05:58.490Z,5.80
2018-09-06T13:08:26.090Z,6.40
2018-09-06T13:10:53.685Z,6.10
2018-09-06T13:13:21.315Z,6.00
2018-09-06T13:15:48.997Z,6.27
2018-09-06T13:18:16.698Z,5.62
2018-09-06T13:20:44.303Z,6.23
2018-09-06T13:23:12.048Z,4.83
2018-09-06T13:25:39.839Z,6.22
2018-09-06T13:28:07.597Z,5.47
2018-09-06T13:30:35.211Z,6.00
2018-09-06T13:33:02.809Z,5.63
2018-09-06T13:35:30.446Z,5.13
2018-09-06T13:37:57.996Z,6.10
2018-09-06T13:40:25.602Z,5.13
2018-09-06T13:42:53.352Z,5.70
2018-09-06T13:45:20.952Z,6.23
2018-09-06T13:47:48.526Z,6.35
2018-09-06T13:50:16.173Z,7.63
2018-09-06T13:52:43.786Z,6.13
2018-09-06T13:55:11.482Z,6.45
2018-09-06T13:57:39.082Z,9.80
2018-09-06T14:00:06.794Z,7.37
2018-09-06T14:02:34.484Z,5.50
2018-09-06T14:05:02.177Z,6.37
2018-09-06T14:07:29.802Z,6.50
2018-09-06T14:09:57.513Z,6.77
2018-09-06T14:12:25.103Z,6.80
2018-09-06T14:14:52.771Z,6.57
2018-09-06T14:17:20.357Z,7.10
2018-09-06T14:19:47.955Z,7.27
2018-09-06T14:22:15.701Z,6.62
2018-09-06T14:24:43.412Z,7.85
2018-09-06T14:27:11.086Z,6.40
2018-09-06T14:29:38.777Z,6.80
2018-09-06T14:32:06.467Z,6.80
2018-09-06T14:34:34.121Z,9.33
2018-09-06T14:37:01.924Z,6.70
2018-09-06T14:39:29.560Z,5.97
2018-09-06T14:41:57.357Z,6.10
2018-09-06T14:44:24.931Z,6.67
2018-09-06T14:46:52.605Z,5.40
2018-09-06T14:49:20.343Z,8.07
2018-09-06T14:51:48.047Z,6.62
2018-09-06T14:54:15.770Z,6.30
2018-09-06T14:56:43.388Z,6.17
2018-09-06T14:59:11.202Z,7.10
2018-09-06T15:01:38.818Z,6.15
2018-09-06T15:04:06.934Z,6.07
2018-09-06T15:06:34.630Z,6.97
2018-09-06T15:09:02.546Z,8.83
2018-09-06T15:11:30.328Z,7.73
2018-09-06T15:13:57.969Z,9.10
2018-09-06T15:16:25.730Z,6.73
2018-09-06T15:18:53.612Z,8.00
2018-09-06T15:21:21.220Z,10.03
2018-09-06T15:23:48.854Z,8.03
2018-09-06T15:26:16.476Z,8.93
2018-09-06T15:28:44.111Z,7.37
2018-09-06T15:31:11.763Z,6.17
2018-09-06T15:33:39.765Z,6.33
2018-09-06T15:36:07.530Z,7.67
2018-09-06T15:38:35.519Z,6.80
2018-09-06T15:41:03.165Z,7.20
2018-09-06T15:43:30.913Z,9.70
2018-09-06T15:45:58.676Z,6.85
2018-09-06T15:48:27.172Z,7.40
2018-09-06T15:50:55.783Z,7.07
2018-09-06T15:53:25.192Z,9.40
2018-09-06T15:55:53.216Z,10.37
2018-09-06T15:58:20.972Z,6.93
2018-09-06T16:00:48.697Z,8.03
2018-09-06T16:03:16.421Z,12.60
2018-09-06T16:05:44.228Z,8.98
2018-09-06T16:08:11.864Z,9.28
2018-09-06T16:10:39.577Z,9.77
2018-09-06T16:13:07.567Z,10.63
2018-09-06T16:15:35.250Z,10.13
2018-09-06T16:18:02.945Z,11.13
2018-09-06T16:20:30.553Z,10.83
2018-09-06T16:22:58.202Z,10.85
2018-09-06T16:25:25.964Z,10.10
2018-09-06T16:27:54.377Z,10.30
2018-09-06T16:30:22.177Z,10.20
2018-09-06T16:32:49.943Z,12.33
2018-09-06T16:35:22.115Z,8.88
2018-09-06T16:37:49.821Z,12.50
2018-09-06T16:40:17.430Z,10.90
2018-09-06T16:42:45.069Z,9.83
2018-09-06T16:45:12.683Z,11.20
2018-09-06T16:47:40.445Z,13.47
2018-09-06T16:50:08.275Z,17.93
2018-09-06T16:52:35.899Z,10.47
2018-09-06T16:55:03.647Z,11.75
2018-09-06T16:57:31.467Z,11.60
2018-09-06T16:59:59.163Z,10.83
2018-09-06T17:02:26.839Z,13.00
2018-09-06T17:04:54.531Z,12.80
2018-09-06T17:07:22.518Z,11.33
2018-09-06T17:09:50.155Z,18.97
2018-09-06T17:12:17.822Z,17.10
2018-09-06T17:14:45.611Z,11.50
2018-09-06T17:17:13.439Z,18.20
2018-09-06T17:19:41.107Z,14.13
2018-09-06T17:22:08.780Z,16.32
2018-09-06T17:24:36.417Z,14.33
2018-09-06T17:27:04.192Z,14.53
2018-09-06T17:29:31.845Z,15.10
2018-09-06T17:31:59.572Z,15.17
2018-09-06T17:34:27.172Z,12.10
2018-09-06T17:36:54.854Z,13.10
2018-09-06T17:39:22.491Z,11.57
2018-09-06T17:41:50.590Z,9.03
2018-09-06T17:44:18.382Z,14.57
2018-09-06T17:46:46.109Z,8.10
2018-09-06T17:49:13.806Z,9.23
2018-09-06T17:51:41.644Z,11.10
2018-09-06T17:54:10.940Z,10.32
2018-09-06T17:56:38.588Z,11.33
2018-09-06T17:59:06.360Z,16.75
2018-09-06T18:01:36.198Z,11.83
2018-09-06T18:04:04.437Z,7.30
2018-09-06T18:06:32.400Z,12.70
2018-09-06T18:09:00.340Z,9.63
2018-09-06T18:11:29.658Z,9.87
2018-09-06T18:13:57.741Z,10.17
2018-09-06T18:16:25.649Z,9.07
2018-09-06T18:18:53.836Z,17.93
2018-09-06T18:21:21.948Z,7.83
2018-09-06T18:23:49.674Z,12.10
2018-09-06T18:26:17.434Z,20.60
2018-09-06T18:28:45.332Z,10.00
2018-09-06T18:31:13.481Z,11.33
2018-09-06T18:33:41.684Z,10.30
2018-09-06T18:36:09.795Z,11.63
2018-09-06T18:38:40.292Z,7.60
2018-09-06T18:41:08.743Z,9.33
2018-09-06T18:43:36.707Z,11.00
2018-09-06T18:46:04.554Z,13.30
2018-09-06T18:48:32.878Z,10.23
2018-09-06T18:51:00.606Z,11.40
2018-09-06T18:53:29.030Z,9.27
2018-09-06T18:55:57.055Z,8.47
2018-09-06T18:58:25.146Z,8.37
2018-09-06T19:00:53.284Z,10.73
2018-09-06T19:03:21.011Z,9.33
2018-09-06T19:05:48.778Z,10.20
2018-09-06T19:08:16.474Z,13.55
2018-09-06T19:10:44.366Z,11.70
2018-09-06T19:13:12.109Z,11.40
2018-09-06T19:15:39.786Z,13.40
2018-09-06T19:18:07.515Z,10.70
2018-09-06T19:20:35.170Z,14.90
2018-09-06T19:23:02.836Z,15.27
2018-09-06T19:25:30.479Z,13.35
2018-09-06T19:27:58.297Z,10.80
2018-09-06T19:30:26.058Z,15.60
2018-09-06T19:32:53.868Z,10.10
2018-09-06T19:35:21.509Z,15.20
2018-09-06T19:37:49.251Z,11.67
2018-09-06T19:40:17.257Z,13.97
2018-09-06T19:42:45.047Z,13.47
2018-09-06T19:45:13.011Z,19.57
2018-09-06T19:47:41.123Z,24.53
2018-09-06T19:50:09.120Z,17.73
2018-09-06T19:52:36.819Z,23.70
2018-09-06T19:55:04.984Z,24.20
2018-09-06T19:57:32.733Z,21.47
2018-09-06T20:00:00.487Z,21.03
2018-09-06T20:02:28.425Z,16.13
2018-09-06T20:04:57.055Z,23.13
2018-09-06T20:10:04.184Z,19.30
2018-09-06T20:12:32.425Z,17.47
2018-09-06T20:15:00.181Z,18.43
2018-09-06T20:17:27.962Z,25.27
2018-09-06T20:19:56.065Z,18.45
2018-09-06T20:22:25.102Z,16.83
2018-09-06T20:24:52.928Z,15.23
2018-09-06T20:27:20.845Z,17.67
2018-09-06T20:29:48.691Z,18.70
2018-09-06T20:32:16.907Z,13.87
2018-09-06T20:34:45.123Z,16.93
2018-09-06T20:37:12.880Z,18.70
2018-09-06T20:39:40.532Z,19.23
2018-09-06T20:42:08.258Z,17.37
2018-09-06T20:44:35.992Z,29.95
2018-09-06T20:47:04.464Z,16.03
2018-09-06T20:49:32.742Z,19.50
2018-09-06T20:52:00.372Z,17.93
2018-09-06T20:54:27.974Z,16.75
2018-09-06T20:56:55.918Z,18.90
2018-09-06T20:59:23.764Z,16.40
2018-09-06T21:01:51.428Z,24.98
2018-09-06T21:04:19.191Z,17.03
2018-09-06T21:06:46.907Z,18.17
2018-09-06T21:09:15.188Z,21.03
2018-09-06T21:11:42.916Z,20.03
2018-09-06T21:14:10.561Z,17.60
2018-09-06T21:16:38.277Z,19.27
2018-09-06T21:19:05.934Z,18.33
2018-09-06T21:21:33.608Z,19.12
2018-09-06T21:24:01.229Z,19.13
2018-09-06T21:26:28.882Z,19.00
2018-09-06T21:28:56.512Z,19.37
2018-09-06T21:31:24.181Z,19.07
2018-09-06T21:33:51.917Z,18.57
2018-09-06T21:36:19.734Z,25.30
2018-09-06T21:38:47.432Z,22.27
2018-09-06T21:41:15.109Z,21.50
2018-09-06T21:43:42.763Z,25.30
2018-09-06T21:46:10.393Z,20.30
2018-09-06T21:48:38.245Z,19.10
2018-09-06T21:51:06.149Z,25.90
2018-09-06T21:53:33.833Z,22.83
2018-09-06T21:56:01.571Z,27.33
2018-09-06T21:58:29.361Z,20.65
2018-09-06T22:00:56.993Z,25.48
2018-09-06T22:03:30.396Z,23.70
2018-09-06T22:05:58.074Z,18.37
2018-09-06T22:08:25.688Z,16.87
2018-09-06T22:10:53.471Z,19.48
2018-09-06T22:13:21.181Z,27.43
2018-09-06T22:15:48.829Z,19.43
2018-09-06T22:18:16.478Z,22.50
2018-09-06T22:20:44.134Z,20.33
2018-09-06T22:23:11.885Z,21.20
2018-09-06T22:25:39.487Z,26.45
2018-09-06T22:28:07.192Z,22.40
2018-09-06T22:30:34.861Z,23.40
2018-09-06T22:33:02.536Z,19.47
2018-09-06T22:35:30.190Z,20.88
2018-09-06T22:37:57.827Z,29.10
2018-09-06T22:40:25.515Z,22.85
2018-09-06T22:42:53.218Z,23.25
2018-09-06T22:45:20.854Z,19.17
2018-09-06T22:47:49.458Z,21.40
2018-09-06T22:50:17.123Z,32.53
2018-09-06T22:52:44.766Z,22.32
2018-09-06T22:55:12.950Z,24.70
2018-09-06T22:57:40.650Z,22.93
2018-09-06T23:00:08.316Z,22.13
2018-09-06T23:02:41.867Z,19.03
2018-09-06T23:05:09.511Z,19.13
2018-09-06T23:07:37.219Z,23.75
2018-09-06T23:10:05.456Z,20.77
2018-09-06T23:12:33.106Z,19.07
2018-09-06T23:15:00.775Z,17.10
2018-09-06T23:17:28.416Z,18.57
2018-09-06T23:19:56.030Z,15.97
2018-09-06T23:22:30.642Z,17.40
2018-09-06T23:24:58.230Z,17.13
2018-09-06T23:27:26.154Z,20.75
2018-09-06T23:29:54.481Z,16.35
2018-09-06T23:32:22.406Z,14.90
2018-09-06T23:34:50.018Z,15.90
2018-09-06T23:37:17.601Z,15.78
2018-09-06T23:39:45.233Z,16.40
2018-09-06T23:42:12.853Z,18.57
2018-09-06T23:44:40.505Z,18.03
2018-09-06T23:47:08.143Z,20.12
2018-09-06T23:49:35.797Z,17.45
2018-09-06T23:52:03.437Z,14.93
2018-09-06T23:54:31.061Z,16.13
2018-09-06T23:56:58.795Z,16.13
2018-09-06T23:59:26.447Z,16.50
